sensor_id;sensor_type;location;lat;lon;timestamp;pressure;altitude;pressure_sealevel;temperature;humidity
68712;BME280;55690;51.566;19.198;2023-07-09T00:01:18;102035.52;;;19.42;74.05
68712;BME280;55690;51.566;19.198;2023-07-09T00:05:22;102042.91;;;19.41;74.46
68712;BME280;55690;51.566;19.198;2023-07-09T00:09:28;102045.94;;;19.38;73.85
68712;BME280;55690;51.566;19.198;2023-07-09T00:13:34;102032.94;;;19.19;74.21
68712;BME280;55690;51.566;19.198;2023-07-09T00:17:40;102041.53;;;19.26;74.13
68712;BME280;55690;51.566;19.198;2023-07-09T00:21:48;102040.25;;;19.30;74.58
68712;BME280;55690;51.566;19.198;2023-07-09T00:25:53;102041.53;;;19.26;75.46
68712;BME280;55690;51.566;19.198;2023-07-09T00:29:59;102036.98;;;19.15;74.75
68712;BME280;55690;51.566;19.198;2023-07-09T00:34:05;102038.65;;;19.27;74.50
68712;BME280;55690;51.566;19.198;2023-07-09T00:38:21;102037.85;;;19.16;75.31
68712;BME280;55690;51.566;19.198;2023-07-09T00:42:22;102037.12;;;18.83;77.10
68712;BME280;55690;51.566;19.198;2023-07-09T00:50:49;102036.51;;;18.80;77.61
68712;BME280;55690;51.566;19.198;2023-07-09T00:54:48;102028.52;;;18.77;77.00
68712;BME280;55690;51.566;19.198;2023-07-09T00:58:53;102033.69;;;18.70;77.75
68712;BME280;55690;51.566;19.198;2023-07-09T01:02:56;102039.59;;;18.66;78.00
68712;BME280;55690;51.566;19.198;2023-07-09T01:07:00;102034.22;;;18.64;77.29
68712;BME280;55690;51.566;19.198;2023-07-09T01:11:02;102026.71;;;18.66;75.63
68712;BME280;55690;51.566;19.198;2023-07-09T01:15:08;102025.91;;;18.75;74.80
68712;BME280;55690;51.566;19.198;2023-07-09T01:19:13;102029.66;;;18.74;74.99
68712;BME280;55690;51.566;19.198;2023-07-09T01:23:19;102023.95;;;18.66;75.13
68712;BME280;55690;51.566;19.198;2023-07-09T01:27:32;102026.16;;;18.51;75.51
68712;BME280;55690;51.566;19.198;2023-07-09T01:31:38;102043.06;;;18.47;77.26
68712;BME280;55690;51.566;19.198;2023-07-09T01:35:39;102043.27;;;18.55;76.51
68712;BME280;55690;51.566;19.198;2023-07-09T01:39:44;102044.02;;;18.57;77.69
68712;BME280;55690;51.566;19.198;2023-07-09T01:43:50;102053.53;;;18.53;77.74
68712;BME280;55690;51.566;19.198;2023-07-09T01:47:57;102052.80;;;18.51;77.81
68712;BME280;55690;51.566;19.198;2023-07-09T01:52:03;102058.56;;;18.48;77.75
68712;BME280;55690;51.566;19.198;2023-07-09T01:56:08;102057.21;;;18.42;78.75
68712;BME280;55690;51.566;19.198;2023-07-09T02:00:16;102073.98;;;18.39;78.29
68712;BME280;55690;51.566;19.198;2023-07-09T02:04:20;102064.11;;;18.37;79.62
68712;BME280;55690;51.566;19.198;2023-07-09T02:08:27;102075.70;;;18.19;79.68
68712;BME280;55690;51.566;19.198;2023-07-09T02:12:33;102069.23;;;18.09;80.24
68712;BME280;55690;51.566;19.198;2023-07-09T02:16:39;102068.88;;;18.03;80.95
68712;BME280;55690;51.566;19.198;2023-07-09T02:20:46;102071.97;;;18.09;80.40
68712;BME280;55690;51.566;19.198;2023-07-09T02:24:51;102070.28;;;17.86;82.37
68712;BME280;55690;51.566;19.198;2023-07-09T02:28:58;102076.88;;;17.94;80.89
68712;BME280;55690;51.566;19.198;2023-07-09T02:33:04;102070.02;;;17.89;81.83
68712;BME280;55690;51.566;19.198;2023-07-09T02:37:10;102080.38;;;17.97;81.47
68712;BME280;55690;51.566;19.198;2023-07-09T02:41:16;102078.37;;;17.99;81.07
68712;BME280;55690;51.566;19.198;2023-07-09T02:45:22;102074.77;;;17.87;82.35
68712;BME280;55690;51.566;19.198;2023-07-09T02:49:29;102076.08;;;18.15;81.98
68712;BME280;55690;51.566;19.198;2023-07-09T02:53:35;102088.74;;;17.95;80.48
68712;BME280;55690;51.566;19.198;2023-07-09T02:57:41;102085.23;;;18.04;80.93
68712;BME280;55690;51.566;19.198;2023-07-09T03:01:47;102085.23;;;18.04;81.05
68712;BME280;55690;51.566;19.198;2023-07-09T03:05:53;102091.24;;;17.98;81.61
68712;BME280;55690;51.566;19.198;2023-07-09T03:09:59;102093.85;;;18.00;81.77
68712;BME280;55690;51.566;19.198;2023-07-09T03:14:05;102097.50;;;17.89;82.71
68712;BME280;55690;51.566;19.198;2023-07-09T03:18:12;102103.29;;;17.75;82.93
68712;BME280;55690;51.566;19.198;2023-07-09T03:22:18;102108.63;;;17.76;83.46
68712;BME280;55690;51.566;19.198;2023-07-09T03:26:25;102116.88;;;17.76;83.54
68712;BME280;55690;51.566;19.198;2023-07-09T03:30:30;102106.99;;;17.85;81.94
68712;BME280;55690;51.566;19.198;2023-07-09T03:34:36;102109.62;;;17.86;82.79
68712;BME280;55690;51.566;19.198;2023-07-09T03:38:42;102118.87;;;17.85;84.02
68712;BME280;55690;51.566;19.198;2023-07-09T03:42:49;102107.62;;;17.88;84.00
68712;BME280;55690;51.566;19.198;2023-07-09T03:46:55;102103.50;;;17.83;81.67
68712;BME280;55690;51.566;19.198;2023-07-09T03:51:02;102115.48;;;17.93;81.67
68712;BME280;55690;51.566;19.198;2023-07-09T03:55:08;102113.23;;;17.98;80.89
68712;BME280;55690;51.566;19.198;2023-07-09T03:59:13;102117.95;;;18.18;81.91
68712;BME280;55690;51.566;19.198;2023-07-09T04:03:20;102113.38;;;18.28;82.39
68712;BME280;55690;51.566;19.198;2023-07-09T04:07:26;102119.72;;;18.40;83.97
68712;BME280;55690;51.566;19.198;2023-07-09T04:11:32;102121.00;;;18.68;81.82
68712;BME280;55690;51.566;19.198;2023-07-09T04:15:38;102112.09;;;18.76;82.21
68712;BME280;55690;51.566;19.198;2023-07-09T04:19:44;102103.84;;;18.97;83.50
68712;BME280;55690;51.566;19.198;2023-07-09T04:23:50;102107.97;;;19.33;82.35
68712;BME280;55690;51.566;19.198;2023-07-09T04:27:56;102102.31;;;19.34;82.68
68712;BME280;55690;51.566;19.198;2023-07-09T04:32:03;102108.47;;;19.78;81.72
68712;BME280;55690;51.566;19.198;2023-07-09T04:36:09;102108.65;;;19.86;82.46
68712;BME280;55690;51.566;19.198;2023-07-09T04:40:18;102112.73;;;20.01;83.51
68712;BME280;55690;51.566;19.198;2023-07-09T04:44:21;102113.74;;;19.90;83.94
68712;BME280;55690;51.566;19.198;2023-07-09T04:48:27;102114.38;;;20.23;82.10
68712;BME280;55690;51.566;19.198;2023-07-09T04:52:35;102131.56;;;20.46;81.32
68712;BME280;55690;51.566;19.198;2023-07-09T04:56:40;102125.17;;;20.45;79.96
68712;BME280;55690;51.566;19.198;2023-07-09T05:00:46;102124.16;;;20.56;79.43
68712;BME280;55690;51.566;19.198;2023-07-09T05:04:52;102129.83;;;20.54;79.13
68712;BME280;55690;51.566;19.198;2023-07-09T05:08:58;102119.05;;;20.90;78.77
68712;BME280;55690;51.566;19.198;2023-07-09T05:13:04;102125.70;;;21.26;78.10
68712;BME280;55690;51.566;19.198;2023-07-09T05:17:10;102123.16;;;21.52;77.38
68712;BME280;55690;51.566;19.198;2023-07-09T05:21:17;102119.11;;;21.74;76.67
68712;BME280;55690;51.566;19.198;2023-07-09T05:25:23;102125.59;;;21.65;76.24
68712;BME280;55690;51.566;19.198;2023-07-09T05:29:29;102128.40;;;21.82;76.85
68712;BME280;55690;51.566;19.198;2023-07-09T05:33:35;102132.94;;;21.74;77.14
68712;BME280;55690;51.566;19.198;2023-07-09T05:37:41;102145.27;;;22.16;75.76
68712;BME280;55690;51.566;19.198;2023-07-09T05:41:47;102132.83;;;22.48;75.74
68712;BME280;55690;51.566;19.198;2023-07-09T05:45:54;102137.48;;;22.65;75.12
68712;BME280;55690;51.566;19.198;2023-07-09T05:50:00;102140.84;;;22.86;74.55
68712;BME280;55690;51.566;19.198;2023-07-09T05:54:07;102129.09;;;23.36;73.01
68712;BME280;55690;51.566;19.198;2023-07-09T05:58:12;102123.22;;;23.39;72.25
68712;BME280;55690;51.566;19.198;2023-07-09T06:02:20;102133.48;;;24.15;71.53
68712;BME280;55690;51.566;19.198;2023-07-09T06:06:25;102138.38;;;24.29;70.55
68712;BME280;55690;51.566;19.198;2023-07-09T06:10:31;102129.80;;;24.81;70.20
68712;BME280;55690;51.566;19.198;2023-07-09T06:14:37;102138.93;;;24.33;69.49
68712;BME280;55690;51.566;19.198;2023-07-09T06:18:43;102137.96;;;24.82;68.67
68712;BME280;55690;51.566;19.198;2023-07-09T06:22:49;102142.32;;;25.26;67.81
68712;BME280;55690;51.566;19.198;2023-07-09T06:26:56;102134.97;;;26.04;66.63
68712;BME280;55690;51.566;19.198;2023-07-09T06:31:01;102139.13;;;26.08;66.47
68712;BME280;55690;51.566;19.198;2023-07-09T06:35:08;102138.32;;;26.62;66.07
68712;BME280;55690;51.566;19.198;2023-07-09T06:39:14;102135.22;;;27.25;65.21
68712;BME280;55690;51.566;19.198;2023-07-09T06:43:20;102127.84;;;27.76;64.01
68712;BME280;55690;51.566;19.198;2023-07-09T06:47:26;102121.53;;;28.19;62.80
68712;BME280;55690;51.566;19.198;2023-07-09T06:51:32;102125.91;;;28.57;61.41
68712;BME280;55690;51.566;19.198;2023-07-09T06:55:39;102133.86;;;28.96;61.43
68712;BME280;55690;51.566;19.198;2023-07-09T06:59:44;102121.35;;;29.20;60.84
68712;BME280;55690;51.566;19.198;2023-07-09T07:03:51;102125.13;;;29.62;61.00
68712;BME280;55690;51.566;19.198;2023-07-09T07:07:57;102137.19;;;29.62;59.49
68712;BME280;55690;51.566;19.198;2023-07-09T07:12:03;102129.86;;;29.61;58.90
68712;BME280;55690;51.566;19.198;2023-07-09T07:16:11;102128.27;;;29.45;58.94
68712;BME280;55690;51.566;19.198;2023-07-09T07:20:16;102129.84;;;29.96;58.19
68712;BME280;55690;51.566;19.198;2023-07-09T07:24:21;102134.76;;;30.35;56.79
68712;BME280;55690;51.566;19.198;2023-07-09T07:28:27;102133.44;;;30.18;55.67
68712;BME280;55690;51.566;19.198;2023-07-09T07:32:34;102132.77;;;30.16;55.49
68712;BME280;55690;51.566;19.198;2023-07-09T07:36:40;102133.08;;;30.47;55.05
68712;BME280;55690;51.566;19.198;2023-07-09T07:40:46;102127.04;;;30.43;55.84
68712;BME280;55690;51.566;19.198;2023-07-09T07:44:52;102138.16;;;30.17;55.29
68712;BME280;55690;51.566;19.198;2023-07-09T07:48:58;102136.48;;;29.54;56.06
68712;BME280;55690;51.566;19.198;2023-07-09T07:53:05;102147.20;;;29.22;56.31
68712;BME280;55690;51.566;19.198;2023-07-09T07:57:11;102142.95;;;29.54;55.92
68712;BME280;55690;51.566;19.198;2023-07-09T08:01:17;102140.90;;;29.69;56.20
68712;BME280;55690;51.566;19.198;2023-07-09T08:05:23;102137.07;;;29.42;55.52
68712;BME280;55690;51.566;19.198;2023-07-09T08:09:29;102144.49;;;30.32;55.19
68712;BME280;55690;51.566;19.198;2023-07-09T08:13:36;102137.65;;;30.55;53.99
68712;BME280;55690;51.566;19.198;2023-07-09T08:17:41;102134.05;;;30.87;53.29
68712;BME280;55690;51.566;19.198;2023-07-09T08:21:48;102142.02;;;30.77;52.87
68712;BME280;55690;51.566;19.198;2023-07-09T08:25:55;102141.62;;;30.73;53.31
68712;BME280;55690;51.566;19.198;2023-07-09T08:30:00;102138.04;;;30.45;53.25
68712;BME280;55690;51.566;19.198;2023-07-09T08:34:06;102141.19;;;30.90;52.57
68712;BME280;55690;51.566;19.198;2023-07-09T08:38:12;102141.63;;;31.00;52.24
68712;BME280;55690;51.566;19.198;2023-07-09T08:50:47;102137.11;;;31.58;50.19
68712;BME280;55690;51.566;19.198;2023-07-09T08:54:51;102138.85;;;31.39;50.07
68712;BME280;55690;51.566;19.198;2023-07-09T08:58:55;102145.08;;;30.95;50.04
68712;BME280;55690;51.566;19.198;2023-07-09T09:03:12;102131.66;;;30.64;49.36
68712;BME280;55690;51.566;19.198;2023-07-09T09:11:38;102142.03;;;30.84;49.22
68712;BME280;55690;51.566;19.198;2023-07-09T09:15:43;102142.08;;;31.50;48.80
68712;BME280;55690;51.566;19.198;2023-07-09T09:24:26;102140.78;;;31.06;49.10
68712;BME280;55690;51.566;19.198;2023-07-09T09:28:16;102131.48;;;30.92;48.80
68712;BME280;55690;51.566;19.198;2023-07-09T09:32:25;102132.15;;;31.54;48.83
68712;BME280;55690;51.566;19.198;2023-07-09T09:36:27;102132.29;;;31.92;47.16
68712;BME280;55690;51.566;19.198;2023-07-09T09:40:33;102132.47;;;32.03;47.92
68712;BME280;55690;51.566;19.198;2023-07-09T09:44:35;102131.13;;;32.57;46.88
68712;BME280;55690;51.566;19.198;2023-07-09T09:48:37;102132.73;;;32.47;46.32
68712;BME280;55690;51.566;19.198;2023-07-09T09:52:39;102134.99;;;32.25;46.83
68712;BME280;55690;51.566;19.198;2023-07-09T09:56:42;102130.14;;;32.45;45.91
68712;BME280;55690;51.566;19.198;2023-07-09T10:00:50;102137.32;;;33.04;47.58
68712;BME280;55690;51.566;19.198;2023-07-09T10:04:53;102138.37;;;33.10;47.17
68712;BME280;55690;51.566;19.198;2023-07-09T10:13:20;102140.99;;;32.73;46.72
68712;BME280;55690;51.566;19.198;2023-07-09T10:17:35;102135.59;;;32.78;45.74
68712;BME280;55690;51.566;19.198;2023-07-09T10:21:45;102133.91;;;32.64;45.97
68712;BME280;55690;51.566;19.198;2023-07-09T10:25:53;102144.03;;;32.71;46.04
68712;BME280;55690;51.566;19.198;2023-07-09T10:30:13;102126.70;;;33.56;45.87
68712;BME280;55690;51.566;19.198;2023-07-09T10:34:26;102135.45;;;33.48;45.89
68712;BME280;55690;51.566;19.198;2023-07-09T10:38:44;102128.48;;;33.50;45.37
68712;BME280;55690;51.566;19.198;2023-07-09T10:42:50;102131.13;;;33.20;44.69
68712;BME280;55690;51.566;19.198;2023-07-09T10:46:58;102124.79;;;33.31;45.27
68712;BME280;55690;51.566;19.198;2023-07-09T10:51:02;102116.76;;;33.53;45.30
68712;BME280;55690;51.566;19.198;2023-07-09T10:55:15;102133.72;;;33.47;44.79
68712;BME280;55690;51.566;19.198;2023-07-09T10:59:35;102130.88;;;33.28;45.06
68712;BME280;55690;51.566;19.198;2023-07-09T11:12:05;102120.94;;;33.69;44.79
68712;BME280;55690;51.566;19.198;2023-07-09T11:16:16;102130.94;;;33.65;44.55
68712;BME280;55690;51.566;19.198;2023-07-09T11:20:30;102134.42;;;34.03;44.28
68712;BME280;55690;51.566;19.198;2023-07-09T11:28:50;102135.18;;;33.74;43.73
68712;BME280;55690;51.566;19.198;2023-07-09T11:32:58;102127.98;;;33.78;43.19
68712;BME280;55690;51.566;19.198;2023-07-09T11:37:01;102135.20;;;33.92;43.11
68712;BME280;55690;51.566;19.198;2023-07-09T11:41:22;102125.41;;;34.31;43.57
68712;BME280;55690;51.566;19.198;2023-07-09T11:45:14;102124.95;;;34.64;43.45
68712;BME280;55690;51.566;19.198;2023-07-09T11:49:23;102130.45;;;34.59;42.24
68712;BME280;55690;51.566;19.198;2023-07-09T11:57:38;102123.47;;;34.62;43.51
68712;BME280;55690;51.566;19.198;2023-07-09T12:01:44;102117.24;;;34.42;44.34
68712;BME280;55690;51.566;19.198;2023-07-09T12:09:57;102113.05;;;33.96;43.36
68712;BME280;55690;51.566;19.198;2023-07-09T12:14:10;102105.60;;;34.20;42.89
68712;BME280;55690;51.566;19.198;2023-07-09T12:18:14;102100.23;;;34.48;43.00
68712;BME280;55690;51.566;19.198;2023-07-09T12:22:19;102087.05;;;33.94;42.97
68712;BME280;55690;51.566;19.198;2023-07-09T12:26:22;102076.77;;;32.95;43.86
68712;BME280;55690;51.566;19.198;2023-07-09T12:30:24;102090.41;;;33.84;43.26
68712;BME280;55690;51.566;19.198;2023-07-09T12:34:26;102089.17;;;33.80;42.46
68712;BME280;55690;51.566;19.198;2023-07-09T12:38:40;102093.95;;;33.98;43.13
68712;BME280;55690;51.566;19.198;2023-07-09T12:42:38;102092.45;;;34.14;42.87
68712;BME280;55690;51.566;19.198;2023-07-09T12:46:40;102096.30;;;34.01;43.11
68712;BME280;55690;51.566;19.198;2023-07-09T12:50:49;102097.63;;;33.98;42.76
68712;BME280;55690;51.566;19.198;2023-07-09T12:54:58;102079.51;;;33.51;42.56
68712;BME280;55690;51.566;19.198;2023-07-09T12:58:59;102077.66;;;33.82;43.07
68712;BME280;55690;51.566;19.198;2023-07-09T13:03:03;102068.89;;;33.71;43.34
68712;BME280;55690;51.566;19.198;2023-07-09T13:07:34;102079.44;;;33.58;43.72
68712;BME280;55690;51.566;19.198;2023-07-09T13:11:31;102071.47;;;34.10;44.27
68712;BME280;55690;51.566;19.198;2023-07-09T13:15:42;102078.59;;;34.12;43.65
68712;BME280;55690;51.566;19.198;2023-07-09T13:19:46;102074.59;;;33.22;43.04
68712;BME280;55690;51.566;19.198;2023-07-09T13:23:48;102081.01;;;33.35;42.81
68712;BME280;55690;51.566;19.198;2023-07-09T13:27:50;102063.62;;;33.38;43.25
68712;BME280;55690;51.566;19.198;2023-07-09T13:31:51;102062.48;;;33.21;44.22
68712;BME280;55690;51.566;19.198;2023-07-09T13:35:54;102068.78;;;33.42;43.79
68712;BME280;55690;51.566;19.198;2023-07-09T13:39:56;102065.26;;;33.28;43.50
68712;BME280;55690;51.566;19.198;2023-07-09T13:43:58;102064.58;;;33.32;43.75
68712;BME280;55690;51.566;19.198;2023-07-09T13:48:00;102068.82;;;32.92;43.52
68712;BME280;55690;51.566;19.198;2023-07-09T13:52:01;102068.51;;;33.00;43.71
68712;BME280;55690;51.566;19.198;2023-07-09T13:56:03;102061.73;;;33.08;43.97
68712;BME280;55690;51.566;19.198;2023-07-09T14:00:07;102056.05;;;32.58;43.41
68712;BME280;55690;51.566;19.198;2023-07-09T14:04:11;102048.98;;;33.05;43.61
68712;BME280;55690;51.566;19.198;2023-07-09T14:08:14;102053.40;;;32.94;44.05
68712;BME280;55690;51.566;19.198;2023-07-09T14:12:17;102052.91;;;33.29;43.77
68712;BME280;55690;51.566;19.198;2023-07-09T14:16:19;102045.31;;;33.48;43.45
68712;BME280;55690;51.566;19.198;2023-07-09T14:20:21;102043.32;;;32.87;43.86
68712;BME280;55690;51.566;19.198;2023-07-09T14:24:28;102041.55;;;32.92;43.31
68712;BME280;55690;51.566;19.198;2023-07-09T14:28:29;102037.02;;;32.91;43.54
68712;BME280;55690;51.566;19.198;2023-07-09T14:32:35;102039.41;;;32.25;43.21
68712;BME280;55690;51.566;19.198;2023-07-09T14:36:37;102036.16;;;32.28;44.05
68712;BME280;55690;51.566;19.198;2023-07-09T14:40:39;102035.97;;;32.23;43.83
68712;BME280;55690;51.566;19.198;2023-07-09T14:44:40;102037.82;;;32.67;44.65
68712;BME280;55690;51.566;19.198;2023-07-09T14:48:42;102037.51;;;32.50;43.79
68712;BME280;55690;51.566;19.198;2023-07-09T14:52:45;102033.61;;;32.13;44.17
68712;BME280;55690;51.566;19.198;2023-07-09T14:56:47;102036.84;;;32.17;43.93
68712;BME280;55690;51.566;19.198;2023-07-09T15:00:51;102037.24;;;31.82;43.80
68712;BME280;55690;51.566;19.198;2023-07-09T15:04:53;102040.38;;;32.05;44.12
68712;BME280;55690;51.566;19.198;2023-07-09T15:08:54;102041.75;;;31.90;44.02
68712;BME280;55690;51.566;19.198;2023-07-09T15:12:57;102027.86;;;32.01;44.36
68712;BME280;55690;51.566;19.198;2023-07-09T15:16:58;102033.87;;;31.54;44.67
68712;BME280;55690;51.566;19.198;2023-07-09T15:21:02;102023.34;;;31.29;44.40
68712;BME280;55690;51.566;19.198;2023-07-09T15:25:11;102022.70;;;31.27;44.01
68712;BME280;55690;51.566;19.198;2023-07-09T15:29:14;102026.79;;;31.31;44.60
68712;BME280;55690;51.566;19.198;2023-07-09T15:33:18;102022.70;;;31.27;44.59
68712;BME280;55690;51.566;19.198;2023-07-09T15:37:20;102016.25;;;30.94;43.86
68712;BME280;55690;51.566;19.198;2023-07-09T15:41:21;102014.55;;;30.66;44.04
68712;BME280;55690;51.566;19.198;2023-07-09T15:45:23;102008.73;;;30.68;44.38
68712;BME280;55690;51.566;19.198;2023-07-09T15:49:28;102008.22;;;30.38;45.39
68712;BME280;55690;51.566;19.198;2023-07-09T15:53:30;102013.83;;;30.38;44.48
68712;BME280;55690;51.566;19.198;2023-07-09T15:57:32;102014.47;;;30.33;44.65
68712;BME280;55690;51.566;19.198;2023-07-09T16:01:34;102012.29;;;30.16;44.51
68712;BME280;55690;51.566;19.198;2023-07-09T16:05:35;102015.98;;;30.23;44.73
68712;BME280;55690;51.566;19.198;2023-07-09T16:09:39;102015.19;;;29.81;44.31
68712;BME280;55690;51.566;19.198;2023-07-09T16:13:40;102008.96;;;29.86;44.61
68712;BME280;55690;51.566;19.198;2023-07-09T16:17:43;102004.60;;;29.76;44.67
68712;BME280;55690;51.566;19.198;2023-07-09T16:21:50;102011.46;;;29.67;44.58
68712;BME280;55690;51.566;19.198;2023-07-09T16:25:54;102003.82;;;29.48;45.14
68712;BME280;55690;51.566;19.198;2023-07-09T16:30:12;102006.20;;;29.51;47.32
68712;BME280;55690;51.566;19.198;2023-07-09T16:34:14;102018.17;;;29.38;48.04
68712;BME280;55690;51.566;19.198;2023-07-09T16:38:16;102010.11;;;29.22;45.35
68712;BME280;55690;51.566;19.198;2023-07-09T16:42:22;102005.38;;;29.23;45.15
68712;BME280;55690;51.566;19.198;2023-07-09T16:46:28;101999.41;;;28.98;44.29
68712;BME280;55690;51.566;19.198;2023-07-09T16:50:34;102001.35;;;28.97;44.10
68712;BME280;55690;51.566;19.198;2023-07-09T16:54:40;102003.28;;;28.97;44.31
68712;BME280;55690;51.566;19.198;2023-07-09T16:58:47;102000.19;;;29.20;45.12
68712;BME280;55690;51.566;19.198;2023-07-09T17:02:53;102005.13;;;29.18;45.22
68712;BME280;55690;51.566;19.198;2023-07-09T17:06:59;102009.74;;;28.97;45.33
68712;BME280;55690;51.566;19.198;2023-07-09T17:11:05;102001.30;;;28.91;45.10
68712;BME280;55690;51.566;19.198;2023-07-09T17:15:22;102006.89;;;28.91;44.81
68712;BME280;55690;51.566;19.198;2023-07-09T17:19:24;102004.70;;;28.86;44.86
68712;BME280;55690;51.566;19.198;2023-07-09T17:23:26;102012.54;;;28.76;47.31
68712;BME280;55690;51.566;19.198;2023-07-09T17:27:31;102009.20;;;28.38;46.44
68712;BME280;55690;51.566;19.198;2023-07-09T17:31:36;102010.52;;;28.42;46.00
68712;BME280;55690;51.566;19.198;2023-07-09T17:35:43;102012.12;;;28.51;46.21
68712;BME280;55690;51.566;19.198;2023-07-09T17:39:48;102011.71;;;28.33;46.43
68712;BME280;55690;51.566;19.198;2023-07-09T17:43:54;102012.26;;;28.43;47.27
68712;BME280;55690;51.566;19.198;2023-07-09T17:48:00;102008.08;;;28.18;47.51
68712;BME280;55690;51.566;19.198;2023-07-09T17:52:14;102019.68;;;28.14;48.95
68712;BME280;55690;51.566;19.198;2023-07-09T17:56:21;102010.47;;;27.99;48.63
68712;BME280;55690;51.566;19.198;2023-07-09T18:00:27;102011.65;;;27.90;48.08
68712;BME280;55690;51.566;19.198;2023-07-09T18:04:29;102017.40;;;27.67;48.55
68712;BME280;55690;51.566;19.198;2023-07-09T18:08:31;102021.72;;;27.70;49.65
68712;BME280;55690;51.566;19.198;2023-07-09T18:12:37;102025.30;;;27.64;50.66
68712;BME280;55690;51.566;19.198;2023-07-09T18:16:44;102024.20;;;27.50;50.18
68712;BME280;55690;51.566;19.198;2023-07-09T18:20:50;102016.80;;;27.42;50.40
68712;BME280;55690;51.566;19.198;2023-07-09T18:24:57;102007.37;;;27.43;51.88
68712;BME280;55690;51.566;19.198;2023-07-09T18:29:02;102013.80;;;27.44;51.64
68712;BME280;55690;51.566;19.198;2023-07-09T18:33:10;102014.52;;;27.16;53.12
68712;BME280;55690;51.566;19.198;2023-07-09T18:37:16;102005.26;;;27.01;52.78
68712;BME280;55690;51.566;19.198;2023-07-09T18:41:20;102010.02;;;26.78;53.58
68712;BME280;55690;51.566;19.198;2023-07-09T18:45:28;102016.35;;;26.49;53.59
68712;BME280;55690;51.566;19.198;2023-07-09T18:49:33;102021.05;;;26.26;54.86
68712;BME280;55690;51.566;19.198;2023-07-09T18:53:40;102029.14;;;26.12;55.01
68712;BME280;55690;51.566;19.198;2023-07-09T18:57:45;102013.66;;;25.87;56.41
68712;BME280;55690;51.566;19.198;2023-07-09T19:01:51;102018.63;;;25.69;56.55
68712;BME280;55690;51.566;19.198;2023-07-09T19:05:57;102015.39;;;25.49;56.70
68712;BME280;55690;51.566;19.198;2023-07-09T19:10:04;102025.88;;;25.31;57.61
68712;BME280;55690;51.566;19.198;2023-07-09T19:14:10;102024.41;;;25.04;57.66
68712;BME280;55690;51.566;19.198;2023-07-09T19:18:22;102029.96;;;25.04;57.48
68712;BME280;55690;51.566;19.198;2023-07-09T19:22:29;102029.09;;;24.79;57.93
68712;BME280;55690;51.566;19.198;2023-07-09T19:26:34;102033.77;;;24.70;60.01
68712;BME280;55690;51.566;19.198;2023-07-09T19:30:36;102030.51;;;24.59;59.38
68712;BME280;55690;51.566;19.198;2023-07-09T19:34:40;102029.97;;;24.39;59.97
68712;BME280;55690;51.566;19.198;2023-07-09T19:38:47;102034.81;;;24.29;59.86
68712;BME280;55690;51.566;19.198;2023-07-09T19:42:54;102033.90;;;24.12;60.65
68712;BME280;55690;51.566;19.198;2023-07-09T19:47:01;102037.38;;;24.14;59.13
68712;BME280;55690;51.566;19.198;2023-07-09T19:51:06;102040.80;;;24.00;61.32
68712;BME280;55690;51.566;19.198;2023-07-09T19:55:20;102047.17;;;23.84;61.23
68712;BME280;55690;51.566;19.198;2023-07-09T19:59:22;102048.88;;;23.69;61.55
68712;BME280;55690;51.566;19.198;2023-07-09T20:03:26;102047.09;;;23.60;60.96
68712;BME280;55690;51.566;19.198;2023-07-09T20:07:30;102048.76;;;23.52;62.25
68712;BME280;55690;51.566;19.198;2023-07-09T20:11:36;102046.42;;;23.32;62.72
68712;BME280;55690;51.566;19.198;2023-07-09T20:15:42;102045.01;;;23.28;62.39
68712;BME280;55690;51.566;19.198;2023-07-09T20:19:48;102055.67;;;23.14;64.07
68712;BME280;55690;51.566;19.198;2023-07-09T20:23:54;102058.45;;;22.88;64.62
68712;BME280;55690;51.566;19.198;2023-07-09T20:28:01;102051.16;;;22.87;64.02
68712;BME280;55690;51.566;19.198;2023-07-09T20:32:16;102055.38;;;23.00;62.74
68712;BME280;55690;51.566;19.198;2023-07-09T20:36:18;102059.41;;;22.79;64.90
68712;BME280;55690;51.566;19.198;2023-07-09T20:40:22;102059.39;;;22.62;65.09
68712;BME280;55690;51.566;19.198;2023-07-09T20:44:26;102072.28;;;22.71;63.19
68712;BME280;55690;51.566;19.198;2023-07-09T20:48:32;102069.67;;;22.69;62.41
68712;BME280;55690;51.566;19.198;2023-07-09T20:52:39;102074.27;;;22.61;65.33
68712;BME280;55690;51.566;19.198;2023-07-09T20:56:44;102072.48;;;22.51;63.85
68712;BME280;55690;51.566;19.198;2023-07-09T21:00:52;102077.62;;;22.46;66.18
68712;BME280;55690;51.566;19.198;2023-07-09T21:04:56;102076.20;;;22.42;64.18
68712;BME280;55690;51.566;19.198;2023-07-09T21:13:19;102095.39;;;22.08;66.08
68712;BME280;55690;51.566;19.198;2023-07-09T21:17:22;102094.55;;;21.98;65.35
68712;BME280;55690;51.566;19.198;2023-07-09T21:21:29;102088.43;;;22.04;64.69
68712;BME280;55690;51.566;19.198;2023-07-09T21:25:31;102081.23;;;21.84;66.27
68712;BME280;55690;51.566;19.198;2023-07-09T21:29:33;102095.97;;;21.75;65.91
68712;BME280;55690;51.566;19.198;2023-07-09T21:33:39;102092.56;;;21.63;66.86
68712;BME280;55690;51.566;19.198;2023-07-09T21:37:45;102100.05;;;21.43;66.48
68712;BME280;55690;51.566;19.198;2023-07-09T21:41:54;102089.95;;;21.62;64.61
68712;BME280;55690;51.566;19.198;2023-07-09T21:45:58;102088.81;;;21.54;64.79
68712;BME280;55690;51.566;19.198;2023-07-09T21:50:09;102093.81;;;21.41;67.04
68712;BME280;55690;51.566;19.198;2023-07-09T21:58:26;102084.73;;;21.21;68.84
68712;BME280;55690;51.566;19.198;2023-07-09T22:02:29;102092.45;;;20.99;69.32